createdAt,value
2023-02-13T00:00:51.596Z,2.57
2023-02-13T00:03:40.137Z,2.64
2023-02-13T00:06:30.238Z,2.69
2023-02-13T00:09:18.765Z,2.67
2023-02-13T00:12:08.541Z,2.64
2023-02-13T00:14:57.047Z,2.69
2023-02-13T00:17:45.550Z,2.76
2023-02-13T00:20:34.107Z,2.76
2023-02-13T00:23:24.202Z,2.72
2023-02-13T00:26:14.024Z,2.81
2023-02-13T00:29:02.495Z,2.91
2023-02-13T00:31:51.058Z,2.91
2023-02-13T00:34:39.600Z,2.94
2023-02-13T00:37:28.057Z,2.88
2023-02-13T00:40:17.882Z,2.91
2023-02-13T00:43:06.315Z,2.86
2023-02-13T00:45:54.832Z,3.06
2023-02-13T00:48:43.422Z,3.22
2023-02-13T00:51:31.938Z,3.24
2023-02-13T00:54:20.490Z,3.18
2023-02-13T00:57:10.297Z,3.21
2023-02-13T00:59:58.815Z,3.50
2023-02-13T01:02:47.777Z,3.61
2023-02-13T01:05:36.870Z,3.59
2023-02-13T01:08:28.227Z,3.58
2023-02-13T01:11:16.776Z,3.63
2023-02-13T01:14:06.886Z,3.61
2023-02-13T01:16:56.551Z,3.56
2023-02-13T01:19:45.094Z,3.56
2023-02-13T01:22:33.716Z,3.54
2023-02-13T01:25:23.087Z,3.45
2023-02-13T01:28:11.602Z,3.34
2023-02-13T01:31:02.291Z,3.09
2023-02-13T01:33:51.224Z,2.84
2023-02-13T01:36:40.118Z,3.26
2023-02-13T01:39:28.782Z,3.30
2023-02-13T01:42:18.562Z,3.27
2023-02-13T01:45:14.751Z,2.87
2023-02-13T01:48:06.979Z,3.15
2023-02-13T01:50:57.651Z,3.20
2023-02-13T01:53:49.214Z,3.14
2023-02-13T01:56:39.956Z,3.17
2023-02-13T01:59:32.213Z,3.22
2023-02-13T02:02:21.136Z,3.21
2023-02-13T02:05:11.534Z,3.28
2023-02-13T02:08:01.462Z,3.26
2023-02-13T02:10:49.973Z,3.30
2023-02-13T02:13:38.766Z,3.48
2023-02-13T02:16:27.513Z,3.56
2023-02-13T02:19:22.962Z,3.41
2023-02-13T02:22:26.779Z,3.68
2023-02-13T02:25:31.771Z,3.64
2023-02-13T02:28:41.193Z,3.68
2023-02-13T02:31:58.953Z,3.55
2023-02-13T02:34:54.352Z,3.45
2023-02-13T02:38:00.624Z,3.42
2023-02-13T02:41:01.505Z,3.42
2023-02-13T02:43:56.344Z,3.46
2023-02-13T02:47:15.842Z,3.47
2023-02-13T02:50:17.655Z,3.50
2023-02-13T02:53:11.070Z,3.01
2023-02-13T02:56:05.800Z,3.49
2023-02-13T02:59:15.136Z,3.47
2023-02-13T03:02:23.049Z,3.45
2023-02-13T03:05:37.673Z,3.40
2023-02-13T03:08:40.202Z,3.21
2023-02-13T03:11:46.516Z,3.06
2023-02-13T03:14:35.188Z,2.89
2023-02-13T03:17:43.010Z,2.77
2023-02-13T03:20:55.736Z,2.75
2023-02-13T03:23:52.187Z,2.54
2023-02-13T03:26:50.470Z,2.48
2023-02-13T03:30:02.798Z,2.48
2023-02-13T03:32:59.400Z,2.32
2023-02-13T03:36:08.746Z,2.42
2023-02-13T03:39:00.261Z,2.31
2023-02-13T03:41:51.778Z,2.31
2023-02-13T03:44:44.457Z,2.37
2023-02-13T03:47:33.006Z,2.27
2023-02-13T03:50:21.987Z,2.33
2023-02-13T03:53:12.416Z,2.35
2023-02-13T03:56:19.495Z,2.32
2023-02-13T03:59:17.007Z,2.36
2023-02-13T04:02:09.612Z,2.44
2023-02-13T04:05:01.456Z,2.69
2023-02-13T04:07:51.333Z,2.67
2023-02-13T04:10:46.624Z,2.48
2023-02-13T04:13:36.489Z,2.22
2023-02-13T04:16:29.819Z,2.41
2023-02-13T04:19:18.474Z,2.42
2023-02-13T04:22:06.942Z,2.33
2023-02-13T04:24:56.864Z,2.38
2023-02-13T04:27:45.411Z,2.39
2023-02-13T04:30:34.377Z,2.42
2023-02-13T04:33:22.878Z,2.43
2023-02-13T04:36:11.397Z,1.91
2023-02-13T04:38:59.931Z,2.42
2023-02-13T04:41:49.723Z,2.30
2023-02-13T04:44:38.201Z,2.28
2023-02-13T04:47:26.843Z,2.17
2023-02-13T04:50:15.346Z,2.11
2023-02-13T04:53:03.814Z,2.17
2023-02-13T04:55:53.136Z,1.73
2023-02-13T04:58:42.955Z,2.03
2023-02-13T05:01:31.642Z,1.98
2023-02-13T05:04:20.369Z,1.94
2023-02-13T05:07:08.883Z,1.87
2023-02-13T05:09:57.322Z,1.86
2023-02-13T05:12:45.837Z,1.82
2023-02-13T05:15:35.870Z,1.85
2023-02-13T05:18:24.351Z,1.85
2023-02-13T05:21:30.196Z,1.88
2023-02-13T05:24:20.517Z,1.92
2023-02-13T05:27:09.231Z,1.94
2023-02-13T05:29:57.710Z,1.86
2023-02-13T05:32:47.549Z,1.81
2023-02-13T05:35:36.041Z,1.73
2023-02-13T05:38:24.530Z,1.64
2023-02-13T05:41:13.514Z,1.65
2023-02-13T05:44:02.037Z,1.34
2023-02-13T05:46:50.537Z,1.65
2023-02-13T05:49:40.373Z,1.66
2023-02-13T05:52:28.933Z,1.61
2023-02-13T05:55:17.586Z,1.51
2023-02-13T05:58:06.067Z,1.64
2023-02-13T06:00:57.034Z,1.54
2023-02-13T06:03:45.780Z,1.61
2023-02-13T06:06:35.746Z,1.76
2023-02-13T06:09:24.303Z,1.75
2023-02-13T06:12:12.809Z,1.82
2023-02-13T06:15:01.348Z,1.91
2023-02-13T06:17:49.849Z,1.93
2023-02-13T06:20:38.619Z,1.92
2023-02-13T06:23:28.669Z,1.89
2023-02-13T06:26:17.147Z,1.82
2023-02-13T06:29:06.770Z,1.82
2023-02-13T06:31:55.327Z,1.72
2023-02-13T06:34:43.840Z,1.58
2023-02-13T06:37:32.338Z,1.65
2023-02-13T06:40:22.232Z,1.69
2023-02-13T06:43:10.752Z,1.68
2023-02-13T06:45:59.521Z,1.65
2023-02-13T06:48:47.983Z,1.68
2023-02-13T06:51:36.445Z,1.76
2023-02-13T06:54:34.541Z,1.90
2023-02-13T06:57:34.699Z,2.04
2023-02-13T07:00:26.117Z,1.91
2023-02-13T07:03:15.675Z,2.00
2023-02-13T07:06:04.271Z,2.19
2023-02-13T07:08:55.408Z,2.28
2023-02-13T07:11:43.916Z,2.58
2023-02-13T07:14:33.756Z,3.09
2023-02-13T07:17:22.237Z,3.30
2023-02-13T07:20:11.577Z,3.75
2023-02-13T07:23:00.860Z,3.90
2023-02-13T07:25:49.327Z,4.04
2023-02-13T07:28:37.844Z,4.36
2023-02-13T07:31:27.808Z,4.35
2023-02-13T07:34:16.602Z,4.63
2023-02-13T07:37:05.138Z,4.64
2023-02-13T07:39:53.621Z,4.82
2023-02-13T07:42:42.464Z,5.00
2023-02-13T07:45:31.367Z,4.88
2023-02-13T07:48:21.320Z,4.99
2023-02-13T07:51:10.422Z,5.06
2023-02-13T07:53:59.064Z,5.11
2023-02-13T07:56:47.796Z,5.40
2023-02-13T07:59:36.308Z,5.44
2023-02-13T08:02:25.027Z,5.64
2023-02-13T08:05:15.327Z,5.61
2023-02-13T08:08:04.312Z,5.29
2023-02-13T08:11:10.552Z,6.05
2023-02-13T08:13:59.041Z,6.14
2023-02-13T08:16:47.593Z,5.97
2023-02-13T08:19:36.075Z,6.36
2023-02-13T08:22:26.022Z,6.44
2023-02-13T08:25:14.592Z,6.54
2023-02-13T08:28:03.211Z,6.47
2023-02-13T08:30:51.734Z,6.46
2023-02-13T08:33:41.405Z,6.31
2023-02-13T08:36:29.988Z,6.74
2023-02-13T08:39:19.881Z,6.79
2023-02-13T08:42:08.409Z,6.85
2023-02-13T08:44:58.195Z,6.71
2023-02-13T08:47:47.363Z,7.15
2023-02-13T08:50:37.303Z,7.16
2023-02-13T08:53:26.077Z,7.29
2023-02-13T08:56:16.001Z,7.69
2023-02-13T08:59:04.600Z,7.76
2023-02-13T09:01:53.077Z,7.64
2023-02-13T09:04:41.629Z,7.70
2023-02-13T09:07:30.151Z,7.59
2023-02-13T09:10:19.321Z,7.54
2023-02-13T09:13:09.202Z,7.48
2023-02-13T09:16:00.406Z,7.59
2023-02-13T09:18:49.544Z,7.56
2023-02-13T09:21:38.057Z,7.66
2023-02-13T09:24:26.829Z,7.70
2023-02-13T09:27:15.643Z,7.64
2023-02-13T09:30:06.196Z,7.82
2023-02-13T09:32:55.518Z,7.85
2023-02-13T09:35:44.789Z,7.91
2023-02-13T09:38:33.223Z,8.00
2023-02-13T09:41:25.282Z,8.18
2023-02-13T09:44:34.036Z,8.19
2023-02-13T09:47:29.435Z,8.13
2023-02-13T09:50:23.261Z,8.14
2023-02-13T09:53:19.745Z,8.07
2023-02-13T09:56:12.296Z,8.07
2023-02-13T09:59:04.846Z,7.97
2023-02-13T10:01:54.224Z,7.94
2023-02-13T10:04:49.700Z,8.05
2023-02-13T10:07:41.683Z,8.08
2023-02-13T10:10:36.598Z,8.19
2023-02-13T10:13:32.358Z,8.13
2023-02-13T10:16:22.556Z,8.06
2023-02-13T10:19:20.368Z,8.17
2023-02-13T10:22:13.119Z,8.16
2023-02-13T10:25:04.536Z,8.14
2023-02-13T10:27:56.191Z,8.12
2023-02-13T10:30:50.465Z,8.03
2023-02-13T10:33:44.178Z,8.11
2023-02-13T10:36:35.668Z,8.07
2023-02-13T10:39:28.739Z,8.13
2023-02-13T10:42:25.944Z,8.23
2023-02-13T10:45:30.372Z,8.31
2023-02-13T10:48:31.251Z,8.41
2023-02-13T10:51:26.657Z,8.45
2023-02-13T10:54:23.771Z,8.57
2023-02-13T10:57:19.528Z,8.53
2023-02-13T11:00:12.750Z,8.54
2023-02-13T11:03:01.310Z,8.48
2023-02-13T11:05:51.293Z,8.39
2023-02-13T11:08:43.122Z,8.53
2023-02-13T11:11:36.035Z,8.56
2023-02-13T11:14:26.919Z,8.74
2023-02-13T11:17:18.585Z,8.80
2023-02-13T11:20:09.543Z,8.84
2023-02-13T11:22:58.878Z,8.89
2023-02-13T11:25:58.166Z,8.86
2023-02-13T11:28:50.276Z,8.98
2023-02-13T11:31:40.320Z,8.93
2023-02-13T11:34:30.867Z,9.13
2023-02-13T11:37:25.354Z,9.27
2023-02-13T11:40:30.775Z,9.37
2023-02-13T11:43:21.208Z,9.48
2023-02-13T11:46:17.015Z,9.59
2023-02-13T11:49:08.412Z,9.65
2023-02-13T11:51:58.258Z,9.69
2023-02-13T11:54:47.095Z,9.29
2023-02-13T11:57:37.082Z,9.77
2023-02-13T12:00:35.380Z,9.68
2023-02-13T12:03:30.079Z,9.39
2023-02-13T12:06:20.844Z,9.94
2023-02-13T12:09:14.059Z,10.08
2023-02-13T12:12:06.436Z,10.11
2023-02-13T12:14:57.126Z,10.15
2023-02-13T12:17:46.857Z,9.98
2023-02-13T12:20:43.779Z,10.05
2023-02-13T12:23:43.236Z,10.20
2023-02-13T12:26:34.566Z,10.18
2023-02-13T12:29:50.475Z,10.37
2023-02-13T12:32:48.651Z,10.55
2023-02-13T12:35:46.675Z,10.55
2023-02-13T12:38:52.517Z,10.50
2023-02-13T12:41:48.803Z,10.67
2023-02-13T12:45:08.134Z,10.73
2023-02-13T12:48:22.673Z,10.76
2023-02-13T12:51:30.309Z,10.69
2023-02-13T12:54:43.815Z,10.86
2023-02-13T12:57:44.280Z,10.78
2023-02-13T13:00:41.271Z,10.82
2023-02-13T13:03:37.958Z,10.76
2023-02-13T13:06:40.818Z,10.96
2023-02-13T13:09:44.619Z,10.98
2023-02-13T13:12:41.385Z,10.83
2023-02-13T13:15:35.053Z,10.96
2023-02-13T13:18:30.966Z,10.99
2023-02-13T13:21:27.419Z,11.19
2023-02-13T13:24:33.342Z,11.27
2023-02-13T13:27:26.603Z,11.23
2023-02-13T13:30:19.574Z,11.19
2023-02-13T13:33:15.095Z,11.26
2023-02-13T13:36:08.824Z,11.22
2023-02-13T13:39:01.933Z,11.38
2023-02-13T13:41:54.869Z,11.35
2023-02-13T13:45:13.383Z,11.27
2023-02-13T13:48:15.443Z,11.45
2023-02-13T13:51:04.251Z,10.68
2023-02-13T13:54:21.365Z,11.49
2023-02-13T13:57:12.516Z,11.54
2023-02-13T14:00:27.574Z,11.44
2023-02-13T14:03:35.661Z,11.47
2023-02-13T14:06:25.449Z,11.49
2023-02-13T14:09:38.600Z,11.50
2023-02-13T14:12:45.879Z,11.48
2023-02-13T14:15:51.586Z,11.53
2023-02-13T14:18:47.088Z,11.43
2023-02-13T14:21:35.849Z,11.47
2023-02-13T14:24:25.497Z,11.49
2023-02-13T14:27:22.304Z,11.48
2023-02-13T14:30:28.134Z,11.47
2023-02-13T14:33:25.679Z,11.42
2023-02-13T14:36:23.165Z,11.30
2023-02-13T14:39:22.167Z,11.11
2023-02-13T14:42:25.018Z,11.14
2023-02-13T14:45:16.949Z,11.08
2023-02-13T14:48:08.206Z,10.86
2023-02-13T14:50:58.096Z,10.87
2023-02-13T14:53:52.319Z,10.83
2023-02-13T14:56:40.835Z,10.63
2023-02-13T14:59:35.212Z,10.23
2023-02-13T15:02:25.130Z,10.46
2023-02-13T15:05:16.090Z,10.44
2023-02-13T15:08:07.992Z,10.33
2023-02-13T15:10:58.560Z,10.18
2023-02-13T15:13:47.222Z,10.07
2023-02-13T15:16:35.789Z,9.98
2023-02-13T15:19:24.927Z,9.49
2023-02-13T15:22:20.470Z,9.79
2023-02-13T15:25:10.003Z,9.75
2023-02-13T15:28:00.662Z,9.72
2023-02-13T15:30:57.048Z,9.68
2023-02-13T15:33:48.202Z,9.64
2023-02-13T15:36:42.015Z,9.54
2023-02-13T15:39:32.560Z,9.49
2023-02-13T15:42:21.191Z,9.49
2023-02-13T15:45:16.821Z,9.39
2023-02-13T15:48:05.815Z,9.35
2023-02-13T15:50:54.383Z,9.27
2023-02-13T15:53:52.157Z,9.20
2023-02-13T15:56:46.047Z,9.09
2023-02-13T15:59:37.742Z,9.04
2023-02-13T16:02:33.143Z,9.01
2023-02-13T16:05:37.528Z,8.93
2023-02-13T16:08:33.640Z,8.77
2023-02-13T16:11:26.970Z,8.80
2023-02-13T16:14:18.501Z,8.76
2023-02-13T16:17:08.285Z,8.69
2023-02-13T16:20:01.307Z,8.64
2023-02-13T16:22:52.266Z,8.58
2023-02-13T16:25:41.916Z,8.55
2023-02-13T16:28:32.743Z,8.46
2023-02-13T16:31:22.779Z,8.34
2023-02-13T16:34:25.026Z,8.23
2023-02-13T16:37:32.318Z,8.15
2023-02-13T16:40:41.720Z,7.84
2023-02-13T16:43:51.761Z,7.94
2023-02-13T16:46:41.282Z,7.82
2023-02-13T16:49:31.067Z,7.70
2023-02-13T16:52:23.270Z,7.68
2023-02-13T16:55:16.165Z,7.61
2023-02-13T16:58:05.445Z,7.45
2023-02-13T17:00:54.005Z,7.31
2023-02-13T17:03:42.528Z,7.17
2023-02-13T17:06:31.061Z,7.03
2023-02-13T17:09:19.825Z,6.89
2023-02-13T17:12:15.817Z,6.74
2023-02-13T17:15:05.063Z,6.64
2023-02-13T17:17:54.547Z,6.56
2023-02-13T17:20:44.782Z,6.41
2023-02-13T17:23:33.194Z,6.29
2023-02-13T17:26:21.662Z,6.07
2023-02-13T17:29:11.549Z,6.22
2023-02-13T17:32:00.141Z,6.10
2023-02-13T17:34:48.749Z,6.04
2023-02-13T17:37:37.338Z,5.94
2023-02-13T17:40:29.473Z,5.68
2023-02-13T17:43:21.604Z,5.71
2023-02-13T17:46:11.435Z,5.62
2023-02-13T17:48:59.930Z,5.51
2023-02-13T17:51:48.470Z,5.42
2023-02-13T17:54:37.019Z,5.30
2023-02-13T17:57:25.566Z,5.30
2023-02-13T18:00:14.826Z,5.19
2023-02-13T18:03:05.146Z,5.12
2023-02-13T18:05:53.682Z,4.80
2023-02-13T18:08:42.152Z,4.94
2023-02-13T18:11:31.129Z,4.90
2023-02-13T18:14:19.609Z,4.81
2023-02-13T18:17:08.240Z,4.76
2023-02-13T18:19:58.279Z,4.63
2023-02-13T18:22:46.883Z,4.57
2023-02-13T18:25:36.844Z,4.52
2023-02-13T18:28:25.306Z,4.47
2023-02-13T18:31:14.313Z,4.39
2023-02-13T18:34:02.859Z,4.33
2023-02-13T18:36:52.706Z,4.24
2023-02-13T18:39:41.338Z,4.10
2023-02-13T18:42:29.848Z,4.14
2023-02-13T18:45:18.576Z,4.12
2023-02-13T18:48:09.290Z,3.98
2023-02-13T18:51:00.375Z,3.92
2023-02-13T18:53:50.399Z,3.90
2023-02-13T18:56:38.893Z,3.86
2023-02-13T18:59:27.556Z,3.85
2023-02-13T19:02:16.062Z,3.76
2023-02-13T19:05:06.256Z,3.66
2023-02-13T19:07:54.739Z,3.43
2023-02-13T19:10:44.877Z,3.56
2023-02-13T19:13:34.112Z,3.58
2023-02-13T19:16:23.324Z,3.55
2023-02-13T19:19:11.820Z,3.49
2023-02-13T19:22:00.345Z,3.41
2023-02-13T19:24:48.892Z,3.35
2023-02-13T19:27:39.110Z,3.27
2023-02-13T19:30:27.665Z,3.20
2023-02-13T19:33:16.170Z,3.21
2023-02-13T19:36:08.200Z,3.11
2023-02-13T19:38:58.240Z,3.04
2023-02-13T19:41:46.799Z,3.03
2023-02-13T19:44:36.888Z,2.95
2023-02-13T19:47:25.459Z,2.98
2023-02-13T19:50:16.566Z,2.53
2023-02-13T19:53:10.639Z,2.81
2023-02-13T19:55:59.821Z,2.79
2023-02-13T19:58:48.363Z,2.77
2023-02-13T20:01:38.288Z,2.76
2023-02-13T20:04:26.939Z,2.74
2023-02-13T20:07:18.475Z,2.74
2023-02-13T20:10:09.621Z,2.61
2023-02-13T20:12:58.296Z,2.07
2023-02-13T20:15:46.816Z,2.59
2023-02-13T20:18:37.175Z,2.53
2023-02-13T20:21:26.210Z,2.49
2023-02-13T20:24:14.692Z,2.44
2023-02-13T20:27:03.179Z,2.48
2023-02-13T20:29:58.846Z,2.45
2023-02-13T20:32:54.906Z,2.42
2023-02-13T20:35:44.779Z,2.38
2023-02-13T20:38:33.285Z,2.25
2023-02-13T20:41:23.035Z,2.33
2023-02-13T20:44:13.249Z,2.26
2023-02-13T20:47:01.720Z,2.19
2023-02-13T20:49:50.252Z,2.17
2023-02-13T20:52:40.884Z,2.12
2023-02-13T20:55:29.400Z,2.07
2023-02-13T20:58:17.976Z,2.10
2023-02-13T21:01:12.255Z,1.49
2023-02-13T21:04:01.343Z,2.10
2023-02-13T21:06:49.938Z,1.74
2023-02-13T21:09:39.864Z,1.91
2023-02-13T21:12:28.376Z,1.80
2023-02-13T21:15:18.793Z,1.60
2023-02-13T21:18:07.455Z,1.46
2023-02-13T21:20:57.412Z,1.60
2023-02-13T21:23:46.452Z,1.62
2023-02-13T21:26:36.826Z,1.66
2023-02-13T21:29:25.371Z,1.61
2023-02-13T21:32:14.061Z,1.48
2023-02-13T21:35:02.588Z,1.61
2023-02-13T21:37:51.060Z,1.54
2023-02-13T21:40:40.711Z,1.52
2023-02-13T21:43:30.541Z,1.46
2023-02-13T21:46:21.121Z,1.48
2023-02-13T21:49:12.934Z,1.47
2023-02-13T21:52:01.427Z,1.44
2023-02-13T21:54:49.940Z,1.43
2023-02-13T21:57:38.484Z,1.37
2023-02-13T22:00:28.335Z,1.30
2023-02-13T22:03:16.816Z,1.23
2023-02-13T22:06:05.531Z,1.17
2023-02-13T22:08:57.361Z,1.17
2023-02-13T22:11:45.863Z,1.09
2023-02-13T22:14:34.313Z,1.11
2023-02-13T22:17:24.155Z,1.09
2023-02-13T22:20:13.340Z,1.10
2023-02-13T22:23:01.838Z,1.08
2023-02-13T22:25:50.583Z,0.99
2023-02-13T22:28:39.072Z,0.96
2023-02-13T22:31:27.783Z,0.87
2023-02-13T22:34:17.644Z,0.98
2023-02-13T22:37:06.374Z,0.92
2023-02-13T22:39:54.834Z,1.00
2023-02-13T22:42:43.339Z,1.02
2023-02-13T22:45:32.296Z,0.51
2023-02-13T22:48:20.727Z,0.85
2023-02-13T22:51:12.155Z,0.92
2023-02-13T22:54:01.124Z,0.93
2023-02-13T22:56:49.718Z,0.91
2023-02-13T22:59:40.143Z,0.86
2023-02-13T23:02:28.826Z,0.85
2023-02-13T23:05:17.750Z,0.79
2023-02-13T23:08:07.681Z,0.84
2023-02-13T23:11:13.606Z,0.77
2023-02-13T23:14:02.272Z,0.76
2023-02-13T23:17:08.403Z,0.67
2023-02-13T23:19:56.878Z,0.73
2023-02-13T23:22:45.374Z,0.64
2023-02-13T23:25:35.603Z,0.59
2023-02-13T23:28:24.071Z,0.62
2023-02-13T23:31:12.921Z,0.56
2023-02-13T23:34:01.529Z,0.52
2023-02-13T23:36:50.363Z,0.47
2023-02-13T23:39:38.811Z,0.37
2023-02-13T23:42:28.663Z,0.44
2023-02-13T23:45:17.281Z,0.48
2023-02-13T23:48:06.018Z,0.55
2023-02-13T23:50:54.454Z,0.58
2023-02-13T23:53:42.868Z,0.56
2023-02-13T23:56:31.582Z,0.52
2023-02-13T23:59:22.428Z,0.47
